sensor_id;sensor_type;location;lat;lon;timestamp;P1;durP1;ratioP1;P2;durP2;ratioP2
568;SDS011;269;48.884;9.192;2023-05-07T00:01:42;3.10;;;2.90;;
568;SDS011;269;48.884;9.192;2023-05-07T00:04:10;5.87;;;3.27;;
568;SDS011;269;48.884;9.192;2023-05-07T00:06:38;3.43;;;3.13;;
568;SDS011;269;48.884;9.192;2023-05-07T00:09:07;3.00;;;2.80;;
568;SDS011;269;48.884;9.192;2023-05-07T00:11:34;3.50;;;3.20;;
568;SDS011;269;48.884;9.192;2023-05-07T00:14:01;2.87;;;2.67;;
568;SDS011;269;48.884;9.192;2023-05-07T00:16:28;3.03;;;2.83;;
568;SDS011;269;48.884;9.192;2023-05-07T00:18:55;3.70;;;2.50;;
568;SDS011;269;48.884;9.192;2023-05-07T00:21:22;2.60;;;2.40;;
568;SDS011;269;48.884;9.192;2023-05-07T00:23:52;2.80;;;2.60;;
568;SDS011;269;48.884;9.192;2023-05-07T00:26:20;2.70;;;2.50;;
568;SDS011;269;48.884;9.192;2023-05-07T00:28:47;3.53;;;3.23;;
568;SDS011;269;48.884;9.192;2023-05-07T00:31:14;3.37;;;3.07;;
568;SDS011;269;48.884;9.192;2023-05-07T00:33:41;3.57;;;3.30;;
568;SDS011;269;48.884;9.192;2023-05-07T00:36:08;3.20;;;3.00;;
568;SDS011;269;48.884;9.192;2023-05-07T00:38:35;3.20;;;3.00;;
568;SDS011;269;48.884;9.192;2023-05-07T00:41:02;5.20;;;3.37;;
568;SDS011;269;48.884;9.192;2023-05-07T00:43:30;3.33;;;3.03;;
568;SDS011;269;48.884;9.192;2023-05-07T00:45:58;3.57;;;3.27;;
568;SDS011;269;48.884;9.192;2023-05-07T00:48:25;3.70;;;3.27;;
568;SDS011;269;48.884;9.192;2023-05-07T00:50:53;3.60;;;3.30;;
568;SDS011;269;48.884;9.192;2023-05-07T00:53:21;4.50;;;3.20;;
568;SDS011;269;48.884;9.192;2023-05-07T00:55:48;3.70;;;3.40;;
568;SDS011;269;48.884;9.192;2023-05-07T00:58:16;4.50;;;3.40;;
568;SDS011;269;48.884;9.192;2023-05-07T01:00:44;3.63;;;3.43;;
568;SDS011;269;48.884;9.192;2023-05-07T01:03:11;4.73;;;4.07;;
568;SDS011;269;48.884;9.192;2023-05-07T01:05:38;4.33;;;3.93;;
568;SDS011;269;48.884;9.192;2023-05-07T01:08:07;3.80;;;3.50;;
568;SDS011;269;48.884;9.192;2023-05-07T01:10:35;4.30;;;3.90;;
568;SDS011;269;48.884;9.192;2023-05-07T01:13:03;4.33;;;3.93;;
568;SDS011;269;48.884;9.192;2023-05-07T01:15:30;4.20;;;3.80;;
568;SDS011;269;48.884;9.192;2023-05-07T01:17:59;3.87;;;3.57;;
568;SDS011;269;48.884;9.192;2023-05-07T01:20:26;4.00;;;3.70;;
568;SDS011;269;48.884;9.192;2023-05-07T01:22:56;2.90;;;2.70;;
568;SDS011;269;48.884;9.192;2023-05-07T01:25:23;3.73;;;3.37;;
568;SDS011;269;48.884;9.192;2023-05-07T01:27:51;3.37;;;3.17;;
568;SDS011;269;48.884;9.192;2023-05-07T01:30:18;3.53;;;3.23;;
568;SDS011;269;48.884;9.192;2023-05-07T01:32:48;3.90;;;3.50;;
568;SDS011;269;48.884;9.192;2023-05-07T01:35:19;4.47;;;3.83;;
568;SDS011;269;48.884;9.192;2023-05-07T01:37:48;3.40;;;3.20;;
568;SDS011;269;48.884;9.192;2023-05-07T01:40:17;4.03;;;3.73;;
568;SDS011;269;48.884;9.192;2023-05-07T01:42:45;3.30;;;3.00;;
568;SDS011;269;48.884;9.192;2023-05-07T01:45:13;3.77;;;3.47;;
568;SDS011;269;48.884;9.192;2023-05-07T01:47:40;3.67;;;3.37;;
568;SDS011;269;48.884;9.192;2023-05-07T01:50:09;3.53;;;3.23;;
568;SDS011;269;48.884;9.192;2023-05-07T01:52:36;3.37;;;3.07;;
568;SDS011;269;48.884;9.192;2023-05-07T01:55:05;4.03;;;3.57;;
568;SDS011;269;48.884;9.192;2023-05-07T01:57:34;3.40;;;3.10;;
568;SDS011;269;48.884;9.192;2023-05-07T02:00:01;3.20;;;3.00;;
568;SDS011;269;48.884;9.192;2023-05-07T02:02:31;3.23;;;2.93;;
568;SDS011;269;48.884;9.192;2023-05-07T02:04:59;3.97;;;3.17;;
568;SDS011;269;48.884;9.192;2023-05-07T02:07:26;3.80;;;3.50;;
568;SDS011;269;48.884;9.192;2023-05-07T02:09:53;3.80;;;3.50;;
568;SDS011;269;48.884;9.192;2023-05-07T02:12:21;4.07;;;3.63;;
568;SDS011;269;48.884;9.192;2023-05-07T02:14:49;3.90;;;3.60;;
568;SDS011;269;48.884;9.192;2023-05-07T02:17:16;4.20;;;3.80;;
568;SDS011;269;48.884;9.192;2023-05-07T02:19:44;3.17;;;2.97;;
568;SDS011;269;48.884;9.192;2023-05-07T02:22:11;3.20;;;2.90;;
568;SDS011;269;48.884;9.192;2023-05-07T02:24:38;3.40;;;3.10;;
568;SDS011;269;48.884;9.192;2023-05-07T02:27:05;2.90;;;2.70;;
568;SDS011;269;48.884;9.192;2023-05-07T02:29:32;3.60;;;3.30;;
568;SDS011;269;48.884;9.192;2023-05-07T02:32:00;3.30;;;3.10;;
568;SDS011;269;48.884;9.192;2023-05-07T02:34:27;3.67;;;3.37;;
568;SDS011;269;48.884;9.192;2023-05-07T02:36:54;4.73;;;3.00;;
568;SDS011;269;48.884;9.192;2023-05-07T02:39:21;3.53;;;3.20;;
568;SDS011;269;48.884;9.192;2023-05-07T02:41:49;3.20;;;3.00;;
568;SDS011;269;48.884;9.192;2023-05-07T02:44:16;3.70;;;3.40;;
568;SDS011;269;48.884;9.192;2023-05-07T02:46:43;3.70;;;3.10;;
568;SDS011;269;48.884;9.192;2023-05-07T02:49:11;3.60;;;3.30;;
568;SDS011;269;48.884;9.192;2023-05-07T02:51:38;3.50;;;3.07;;
568;SDS011;269;48.884;9.192;2023-05-07T02:54:05;3.87;;;3.50;;
568;SDS011;269;48.884;9.192;2023-05-07T02:56:32;3.03;;;2.83;;
568;SDS011;269;48.884;9.192;2023-05-07T02:58:59;3.93;;;3.63;;
568;SDS011;269;48.884;9.192;2023-05-07T03:01:26;3.70;;;3.40;;
568;SDS011;269;48.884;9.192;2023-05-07T03:03:53;4.87;;;4.47;;
568;SDS011;269;48.884;9.192;2023-05-07T03:06:22;3.30;;;3.10;;
568;SDS011;269;48.884;9.192;2023-05-07T03:08:48;4.17;;;3.50;;
568;SDS011;269;48.884;9.192;2023-05-07T03:11:16;4.10;;;3.80;;
568;SDS011;269;48.884;9.192;2023-05-07T03:13:43;4.63;;;4.33;;
568;SDS011;269;48.884;9.192;2023-05-07T03:16:10;4.80;;;4.40;;
568;SDS011;269;48.884;9.192;2023-05-07T03:18:37;7.50;;;6.90;;
568;SDS011;269;48.884;9.192;2023-05-07T03:21:04;8.80;;;8.00;;
568;SDS011;269;48.884;9.192;2023-05-07T03:23:33;7.70;;;6.97;;
568;SDS011;269;48.884;9.192;2023-05-07T03:26:00;6.43;;;5.83;;
568;SDS011;269;48.884;9.192;2023-05-07T03:28:27;5.30;;;4.90;;
568;SDS011;269;48.884;9.192;2023-05-07T03:30:54;5.73;;;5.23;;
568;SDS011;269;48.884;9.192;2023-05-07T03:33:22;4.33;;;3.83;;
568;SDS011;269;48.884;9.192;2023-05-07T03:35:49;4.90;;;4.50;;
568;SDS011;269;48.884;9.192;2023-05-07T03:38:16;4.73;;;4.10;;
568;SDS011;269;48.884;9.192;2023-05-07T03:40:44;4.27;;;3.87;;
568;SDS011;269;48.884;9.192;2023-05-07T03:43:11;4.17;;;3.77;;
568;SDS011;269;48.884;9.192;2023-05-07T03:45:38;3.93;;;3.63;;
568;SDS011;269;48.884;9.192;2023-05-07T03:48:06;3.87;;;3.60;;
568;SDS011;269;48.884;9.192;2023-05-07T03:50:33;3.67;;;3.33;;
568;SDS011;269;48.884;9.192;2023-05-07T03:53:00;4.07;;;3.30;;
568;SDS011;269;48.884;9.192;2023-05-07T03:55:27;4.03;;;3.63;;
568;SDS011;269;48.884;9.192;2023-05-07T03:57:56;4.13;;;3.83;;
568;SDS011;269;48.884;9.192;2023-05-07T04:00:22;3.83;;;3.53;;
568;SDS011;269;48.884;9.192;2023-05-07T04:02:50;3.80;;;3.40;;
568;SDS011;269;48.884;9.192;2023-05-07T04:05:16;3.73;;;3.40;;
568;SDS011;269;48.884;9.192;2023-05-07T04:07:43;5.97;;;4.03;;
568;SDS011;269;48.884;9.192;2023-05-07T04:10:11;4.57;;;3.73;;
568;SDS011;269;48.884;9.192;2023-05-07T04:12:38;4.00;;;3.60;;
568;SDS011;269;48.884;9.192;2023-05-07T04:15:07;4.63;;;4.23;;
568;SDS011;269;48.884;9.192;2023-05-07T04:17:36;5.07;;;4.13;;
568;SDS011;269;48.884;9.192;2023-05-07T04:20:03;4.30;;;3.90;;
568;SDS011;269;48.884;9.192;2023-05-07T04:22:32;3.70;;;3.40;;
568;SDS011;269;48.884;9.192;2023-05-07T04:25:00;4.40;;;4.07;;
568;SDS011;269;48.884;9.192;2023-05-07T04:27:27;3.67;;;3.37;;
568;SDS011;269;48.884;9.192;2023-05-07T04:29:54;3.10;;;2.90;;
568;SDS011;269;48.884;9.192;2023-05-07T04:32:23;3.67;;;3.47;;
568;SDS011;269;48.884;9.192;2023-05-07T04:34:51;4.30;;;3.20;;
568;SDS011;269;48.884;9.192;2023-05-07T04:37:18;4.00;;;3.70;;
568;SDS011;269;48.884;9.192;2023-05-07T04:39:45;4.33;;;4.03;;
568;SDS011;269;48.884;9.192;2023-05-07T04:42:14;5.40;;;4.13;;
568;SDS011;269;48.884;9.192;2023-05-07T04:44:41;5.20;;;3.60;;
568;SDS011;269;48.884;9.192;2023-05-07T04:47:08;4.10;;;3.80;;
568;SDS011;269;48.884;9.192;2023-05-07T04:49:37;3.90;;;3.60;;
568;SDS011;269;48.884;9.192;2023-05-07T04:52:04;4.20;;;3.77;;
568;SDS011;269;48.884;9.192;2023-05-07T04:54:32;3.70;;;3.40;;
568;SDS011;269;48.884;9.192;2023-05-07T04:56:59;3.73;;;3.43;;
568;SDS011;269;48.884;9.192;2023-05-07T04:59:26;3.50;;;3.30;;
568;SDS011;269;48.884;9.192;2023-05-07T05:01:53;3.83;;;3.53;;
568;SDS011;269;48.884;9.192;2023-05-07T05:04:20;3.83;;;2.90;;
568;SDS011;269;48.884;9.192;2023-05-07T05:06:48;3.70;;;3.40;;
568;SDS011;269;48.884;9.192;2023-05-07T05:09:15;3.33;;;3.03;;
568;SDS011;269;48.884;9.192;2023-05-07T05:11:43;3.60;;;3.30;;
568;SDS011;269;48.884;9.192;2023-05-07T05:14:10;3.73;;;3.20;;
568;SDS011;269;48.884;9.192;2023-05-07T05:16:37;3.60;;;3.30;;
568;SDS011;269;48.884;9.192;2023-05-07T05:19:04;3.60;;;3.30;;
568;SDS011;269;48.884;9.192;2023-05-07T05:21:31;3.40;;;3.10;;
568;SDS011;269;48.884;9.192;2023-05-07T05:24:00;4.97;;;3.10;;
568;SDS011;269;48.884;9.192;2023-05-07T05:26:27;3.43;;;3.23;;
568;SDS011;269;48.884;9.192;2023-05-07T05:28:54;3.00;;;2.80;;
568;SDS011;269;48.884;9.192;2023-05-07T05:31:21;4.63;;;3.00;;
568;SDS011;269;48.884;9.192;2023-05-07T05:33:48;4.37;;;3.97;;
568;SDS011;269;48.884;9.192;2023-05-07T05:36:15;3.43;;;3.13;;
568;SDS011;269;48.884;9.192;2023-05-07T05:38:42;3.43;;;3.17;;
568;SDS011;269;48.884;9.192;2023-05-07T05:41:11;3.90;;;3.60;;
568;SDS011;269;48.884;9.192;2023-05-07T05:43:38;5.40;;;3.50;;
568;SDS011;269;48.884;9.192;2023-05-07T05:46:05;3.37;;;3.07;;
568;SDS011;269;48.884;9.192;2023-05-07T05:48:34;3.50;;;3.20;;
568;SDS011;269;48.884;9.192;2023-05-07T05:51:01;3.10;;;2.90;;
568;SDS011;269;48.884;9.192;2023-05-07T05:53:28;3.30;;;3.10;;
568;SDS011;269;48.884;9.192;2023-05-07T05:55:55;3.50;;;3.20;;
568;SDS011;269;48.884;9.192;2023-05-07T05:58:23;4.10;;;3.80;;
568;SDS011;269;48.884;9.192;2023-05-07T06:00:51;3.70;;;3.33;;
568;SDS011;269;48.884;9.192;2023-05-07T06:03:18;3.50;;;3.20;;
568;SDS011;269;48.884;9.192;2023-05-07T06:05:45;3.10;;;2.90;;
568;SDS011;269;48.884;9.192;2023-05-07T06:08:12;2.97;;;2.77;;
568;SDS011;269;48.884;9.192;2023-05-07T06:10:40;3.90;;;2.83;;
568;SDS011;269;48.884;9.192;2023-05-07T06:13:07;2.97;;;2.67;;
568;SDS011;269;48.884;9.192;2023-05-07T06:15:35;3.00;;;2.80;;
568;SDS011;269;48.884;9.192;2023-05-07T06:18:03;2.80;;;2.60;;
568;SDS011;269;48.884;9.192;2023-05-07T06:20:30;3.17;;;2.60;;
568;SDS011;269;48.884;9.192;2023-05-07T06:22:57;3.33;;;3.13;;
568;SDS011;269;48.884;9.192;2023-05-07T06:25:24;3.40;;;3.20;;
568;SDS011;269;48.884;9.192;2023-05-07T06:27:51;3.40;;;3.20;;
568;SDS011;269;48.884;9.192;2023-05-07T06:30:18;2.50;;;2.30;;
568;SDS011;269;48.884;9.192;2023-05-07T06:32:47;3.10;;;2.80;;
568;SDS011;269;48.884;9.192;2023-05-07T06:35:14;3.03;;;2.80;;
568;SDS011;269;48.884;9.192;2023-05-07T06:37:41;3.20;;;2.77;;
568;SDS011;269;48.884;9.192;2023-05-07T06:40:09;3.30;;;2.87;;
568;SDS011;269;48.884;9.192;2023-05-07T06:42:37;2.67;;;2.43;;
568;SDS011;269;48.884;9.192;2023-05-07T06:45:04;3.77;;;2.83;;
568;SDS011;269;48.884;9.192;2023-05-07T06:47:32;2.53;;;2.33;;
568;SDS011;269;48.884;9.192;2023-05-07T06:50:00;2.63;;;2.43;;
568;SDS011;269;48.884;9.192;2023-05-07T06:52:27;2.33;;;2.20;;
568;SDS011;269;48.884;9.192;2023-05-07T06:54:54;3.20;;;2.20;;
568;SDS011;269;48.884;9.192;2023-05-07T06:57:21;2.40;;;2.30;;
568;SDS011;269;48.884;9.192;2023-05-07T06:59:48;5.67;;;2.80;;
568;SDS011;269;48.884;9.192;2023-05-07T07:02:15;3.30;;;2.63;;
568;SDS011;269;48.884;9.192;2023-05-07T07:04:42;2.60;;;2.40;;
568;SDS011;269;48.884;9.192;2023-05-07T07:07:11;3.17;;;2.60;;
568;SDS011;269;48.884;9.192;2023-05-07T07:09:38;2.60;;;2.40;;
568;SDS011;269;48.884;9.192;2023-05-07T07:12:05;2.60;;;2.40;;
568;SDS011;269;48.884;9.192;2023-05-07T07:14:32;2.73;;;2.53;;
568;SDS011;269;48.884;9.192;2023-05-07T07:17:00;2.87;;;2.67;;
568;SDS011;269;48.884;9.192;2023-05-07T07:19:27;3.07;;;2.80;;
568;SDS011;269;48.884;9.192;2023-05-07T07:21:54;2.70;;;2.50;;
568;SDS011;269;48.884;9.192;2023-05-07T07:24:22;4.10;;;3.23;;
568;SDS011;269;48.884;9.192;2023-05-07T07:26:49;3.00;;;2.80;;
568;SDS011;269;48.884;9.192;2023-05-07T07:29:16;2.60;;;2.40;;
568;SDS011;269;48.884;9.192;2023-05-07T07:31:44;3.20;;;2.70;;
568;SDS011;269;48.884;9.192;2023-05-07T07:34:13;3.63;;;3.00;;
568;SDS011;269;48.884;9.192;2023-05-07T07:36:41;3.40;;;3.10;;
568;SDS011;269;48.884;9.192;2023-05-07T07:39:08;2.83;;;2.63;;
568;SDS011;269;48.884;9.192;2023-05-07T07:41:37;3.30;;;3.10;;
568;SDS011;269;48.884;9.192;2023-05-07T07:44:04;3.03;;;2.83;;
568;SDS011;269;48.884;9.192;2023-05-07T07:46:32;3.50;;;2.77;;
568;SDS011;269;48.884;9.192;2023-05-07T07:49:00;3.30;;;3.07;;
568;SDS011;269;48.884;9.192;2023-05-07T07:51:26;3.27;;;3.07;;
568;SDS011;269;48.884;9.192;2023-05-07T07:53:54;3.90;;;2.77;;
568;SDS011;269;48.884;9.192;2023-05-07T07:56:22;3.10;;;2.90;;
568;SDS011;269;48.884;9.192;2023-05-07T07:58:51;3.10;;;2.90;;
568;SDS011;269;48.884;9.192;2023-05-07T08:01:18;3.30;;;3.00;;
568;SDS011;269;48.884;9.192;2023-05-07T08:03:45;3.73;;;2.70;;
568;SDS011;269;48.884;9.192;2023-05-07T08:06:12;2.83;;;2.63;;
568;SDS011;269;48.884;9.192;2023-05-07T08:08:39;3.67;;;3.37;;
568;SDS011;269;48.884;9.192;2023-05-07T08:11:06;3.90;;;3.10;;
568;SDS011;269;48.884;9.192;2023-05-07T08:13:33;3.60;;;3.30;;
568;SDS011;269;48.884;9.192;2023-05-07T08:16:02;3.73;;;3.07;;
568;SDS011;269;48.884;9.192;2023-05-07T08:18:30;3.10;;;2.90;;
568;SDS011;269;48.884;9.192;2023-05-07T08:20:57;3.13;;;2.83;;
568;SDS011;269;48.884;9.192;2023-05-07T08:23:24;3.47;;;3.27;;
568;SDS011;269;48.884;9.192;2023-05-07T08:25:51;3.17;;;2.97;;
568;SDS011;269;48.884;9.192;2023-05-07T08:28:18;3.10;;;2.90;;
568;SDS011;269;48.884;9.192;2023-05-07T08:30:47;3.50;;;3.20;;
568;SDS011;269;48.884;9.192;2023-05-07T08:33:15;3.60;;;3.30;;
568;SDS011;269;48.884;9.192;2023-05-07T08:35:42;3.20;;;2.90;;
568;SDS011;269;48.884;9.192;2023-05-07T08:38:09;3.00;;;2.80;;
568;SDS011;269;48.884;9.192;2023-05-07T08:40:37;3.20;;;3.00;;
568;SDS011;269;48.884;9.192;2023-05-07T08:43:06;3.57;;;3.30;;
568;SDS011;269;48.884;9.192;2023-05-07T08:45:34;3.27;;;2.97;;
568;SDS011;269;48.884;9.192;2023-05-07T08:48:02;3.10;;;2.90;;
568;SDS011;269;48.884;9.192;2023-05-07T08:50:36;2.80;;;2.70;;
568;SDS011;269;48.884;9.192;2023-05-07T08:53:03;3.27;;;3.07;;
568;SDS011;269;48.884;9.192;2023-05-07T08:55:30;3.20;;;2.87;;
568;SDS011;269;48.884;9.192;2023-05-07T08:57:58;2.67;;;2.47;;
568;SDS011;269;48.884;9.192;2023-05-07T09:00:26;3.00;;;2.70;;
568;SDS011;269;48.884;9.192;2023-05-07T09:02:53;5.17;;;2.80;;
568;SDS011;269;48.884;9.192;2023-05-07T09:05:21;3.37;;;3.07;;
568;SDS011;269;48.884;9.192;2023-05-07T09:07:49;2.67;;;2.47;;
568;SDS011;269;48.884;9.192;2023-05-07T09:10:16;3.17;;;2.97;;
568;SDS011;269;48.884;9.192;2023-05-07T09:12:44;3.60;;;3.10;;
568;SDS011;269;48.884;9.192;2023-05-07T09:15:13;2.40;;;2.20;;
568;SDS011;269;48.884;9.192;2023-05-07T09:17:40;3.70;;;2.70;;
568;SDS011;269;48.884;9.192;2023-05-07T09:20:09;3.17;;;2.90;;
568;SDS011;269;48.884;9.192;2023-05-07T09:22:36;3.60;;;3.20;;
568;SDS011;269;48.884;9.192;2023-05-07T09:25:05;3.03;;;2.83;;
568;SDS011;269;48.884;9.192;2023-05-07T09:27:34;3.33;;;3.13;;
568;SDS011;269;48.884;9.192;2023-05-07T09:30:03;3.73;;;2.80;;
568;SDS011;269;48.884;9.192;2023-05-07T09:32:34;2.83;;;2.73;;
568;SDS011;269;48.884;9.192;2023-05-07T09:35:01;3.07;;;2.87;;
568;SDS011;269;48.884;9.192;2023-05-07T09:37:28;3.20;;;3.00;;
568;SDS011;269;48.884;9.192;2023-05-07T09:39:57;3.30;;;3.10;;
568;SDS011;269;48.884;9.192;2023-05-07T09:42:26;3.27;;;3.07;;
568;SDS011;269;48.884;9.192;2023-05-07T09:44:53;3.57;;;2.80;;
568;SDS011;269;48.884;9.192;2023-05-07T09:47:20;2.90;;;2.60;;
568;SDS011;269;48.884;9.192;2023-05-07T09:49:51;3.43;;;3.13;;
568;SDS011;269;48.884;9.192;2023-05-07T09:52:21;3.40;;;3.10;;
568;SDS011;269;48.884;9.192;2023-05-07T09:54:54;3.07;;;2.87;;
568;SDS011;269;48.884;9.192;2023-05-07T09:57:25;3.47;;;3.17;;
568;SDS011;269;48.884;9.192;2023-05-07T09:59:54;4.33;;;3.30;;
568;SDS011;269;48.884;9.192;2023-05-07T10:02:23;3.63;;;3.00;;
568;SDS011;269;48.884;9.192;2023-05-07T10:04:52;3.20;;;2.90;;
568;SDS011;269;48.884;9.192;2023-05-07T10:07:20;2.97;;;2.77;;
568;SDS011;269;48.884;9.192;2023-05-07T10:09:49;3.20;;;2.90;;
568;SDS011;269;48.884;9.192;2023-05-07T10:12:16;3.77;;;3.00;;
568;SDS011;269;48.884;9.192;2023-05-07T10:14:46;2.80;;;2.60;;
568;SDS011;269;48.884;9.192;2023-05-07T10:17:15;3.30;;;3.00;;
568;SDS011;269;48.884;9.192;2023-05-07T10:19:43;3.67;;;3.20;;
568;SDS011;269;48.884;9.192;2023-05-07T10:22:11;2.67;;;2.47;;
568;SDS011;269;48.884;9.192;2023-05-07T10:24:42;2.80;;;2.60;;
568;SDS011;269;48.884;9.192;2023-05-07T10:27:12;2.93;;;2.70;;
568;SDS011;269;48.884;9.192;2023-05-07T10:29:45;2.73;;;2.50;;
568;SDS011;269;48.884;9.192;2023-05-07T10:32:30;3.80;;;3.50;;
568;SDS011;269;48.884;9.192;2023-05-07T10:35:04;2.50;;;2.30;;
568;SDS011;269;48.884;9.192;2023-05-07T10:37:35;3.33;;;2.07;;
568;SDS011;269;48.884;9.192;2023-05-07T10:40:03;2.43;;;2.33;;
568;SDS011;269;48.884;9.192;2023-05-07T10:42:32;3.87;;;2.57;;
568;SDS011;269;48.884;9.192;2023-05-07T10:45:12;3.30;;;3.10;;
568;SDS011;269;48.884;9.192;2023-05-07T10:50:36;2.60;;;2.20;;
568;SDS011;269;48.884;9.192;2023-05-07T10:53:22;2.73;;;2.53;;
568;SDS011;269;48.884;9.192;2023-05-07T10:58:51;2.20;;;2.00;;
568;SDS011;269;48.884;9.192;2023-05-07T11:04:25;3.07;;;2.77;;
568;SDS011;269;48.884;9.192;2023-05-07T11:07:12;2.57;;;2.37;;
568;SDS011;269;48.884;9.192;2023-05-07T11:10:02;2.60;;;2.40;;
568;SDS011;269;48.884;9.192;2023-05-07T11:12:49;3.60;;;2.10;;
568;SDS011;269;48.884;9.192;2023-05-07T11:15:39;2.70;;;2.50;;
568;SDS011;269;48.884;9.192;2023-05-07T11:18:08;2.50;;;2.30;;
568;SDS011;269;48.884;9.192;2023-05-07T11:20:47;2.40;;;2.20;;
568;SDS011;269;48.884;9.192;2023-05-07T11:26:21;2.30;;;2.10;;
568;SDS011;269;48.884;9.192;2023-05-07T11:28:49;2.60;;;2.40;;
568;SDS011;269;48.884;9.192;2023-05-07T11:31:17;3.93;;;2.47;;
568;SDS011;269;48.884;9.192;2023-05-07T11:33:47;2.67;;;2.47;;
568;SDS011;269;48.884;9.192;2023-05-07T11:36:16;2.60;;;2.40;;
568;SDS011;269;48.884;9.192;2023-05-07T11:38:44;2.50;;;2.40;;
568;SDS011;269;48.884;9.192;2023-05-07T11:41:11;2.87;;;2.57;;
568;SDS011;269;48.884;9.192;2023-05-07T11:43:52;2.53;;;2.33;;
568;SDS011;269;48.884;9.192;2023-05-07T11:46:21;2.50;;;2.30;;
568;SDS011;269;48.884;9.192;2023-05-07T11:48:48;2.53;;;2.33;;
568;SDS011;269;48.884;9.192;2023-05-07T11:51:20;2.40;;;2.20;;
568;SDS011;269;48.884;9.192;2023-05-07T11:53:48;2.30;;;2.10;;
568;SDS011;269;48.884;9.192;2023-05-07T11:56:16;2.20;;;2.10;;
568;SDS011;269;48.884;9.192;2023-05-07T11:58:45;2.30;;;2.20;;
568;SDS011;269;48.884;9.192;2023-05-07T12:01:13;1.90;;;1.80;;
568;SDS011;269;48.884;9.192;2023-05-07T12:03:42;1.83;;;1.73;;
568;SDS011;269;48.884;9.192;2023-05-07T12:06:11;2.60;;;2.20;;
568;SDS011;269;48.884;9.192;2023-05-07T12:08:41;2.47;;;2.00;;
568;SDS011;269;48.884;9.192;2023-05-07T12:11:12;2.30;;;2.10;;
568;SDS011;269;48.884;9.192;2023-05-07T12:13:41;2.10;;;1.97;;
568;SDS011;269;48.884;9.192;2023-05-07T12:16:08;2.07;;;1.97;;
568;SDS011;269;48.884;9.192;2023-05-07T12:18:36;2.60;;;2.13;;
568;SDS011;269;48.884;9.192;2023-05-07T12:21:04;2.43;;;2.20;;
568;SDS011;269;48.884;9.192;2023-05-07T12:23:33;2.20;;;2.10;;
568;SDS011;269;48.884;9.192;2023-05-07T12:26:03;2.50;;;2.30;;
568;SDS011;269;48.884;9.192;2023-05-07T12:28:31;2.50;;;2.30;;
568;SDS011;269;48.884;9.192;2023-05-07T12:31:02;2.23;;;2.03;;
568;SDS011;269;48.884;9.192;2023-05-07T12:33:29;1.93;;;1.83;;
568;SDS011;269;48.884;9.192;2023-05-07T12:35:57;2.50;;;2.30;;
568;SDS011;269;48.884;9.192;2023-05-07T12:38:32;3.80;;;2.00;;
568;SDS011;269;48.884;9.192;2023-05-07T12:41:03;1.87;;;1.77;;
568;SDS011;269;48.884;9.192;2023-05-07T12:43:32;1.83;;;1.70;;
568;SDS011;269;48.884;9.192;2023-05-07T12:45:59;2.30;;;2.00;;
568;SDS011;269;48.884;9.192;2023-05-07T12:48:28;1.90;;;1.80;;
568;SDS011;269;48.884;9.192;2023-05-07T12:50:55;2.30;;;1.97;;
568;SDS011;269;48.884;9.192;2023-05-07T12:53:23;2.90;;;2.10;;
568;SDS011;269;48.884;9.192;2023-05-07T12:55:52;2.30;;;2.10;;
568;SDS011;269;48.884;9.192;2023-05-07T12:58:23;2.47;;;2.37;;
568;SDS011;269;48.884;9.192;2023-05-07T13:00:51;2.90;;;2.70;;
568;SDS011;269;48.884;9.192;2023-05-07T13:03:22;3.33;;;3.00;;
568;SDS011;269;48.884;9.192;2023-05-07T13:05:51;4.03;;;3.37;;
568;SDS011;269;48.884;9.192;2023-05-07T13:08:25;3.20;;;2.90;;
568;SDS011;269;48.884;9.192;2023-05-07T13:10:53;4.50;;;3.00;;
568;SDS011;269;48.884;9.192;2023-05-07T13:13:22;4.40;;;2.97;;
568;SDS011;269;48.884;9.192;2023-05-07T13:15:48;3.80;;;3.30;;
568;SDS011;269;48.884;9.192;2023-05-07T13:18:15;2.93;;;2.70;;
568;SDS011;269;48.884;9.192;2023-05-07T13:20:43;3.40;;;2.90;;
568;SDS011;269;48.884;9.192;2023-05-07T13:23:10;2.83;;;2.63;;
568;SDS011;269;48.884;9.192;2023-05-07T13:25:37;2.67;;;2.27;;
568;SDS011;269;48.884;9.192;2023-05-07T13:28:04;2.40;;;2.10;;
568;SDS011;269;48.884;9.192;2023-05-07T13:30:33;2.07;;;1.97;;
568;SDS011;269;48.884;9.192;2023-05-07T13:33:00;1.97;;;1.87;;
568;SDS011;269;48.884;9.192;2023-05-07T13:35:27;2.70;;;1.60;;
568;SDS011;269;48.884;9.192;2023-05-07T13:37:54;1.80;;;1.33;;
568;SDS011;269;48.884;9.192;2023-05-07T13:40:21;3.33;;;1.73;;
568;SDS011;269;48.884;9.192;2023-05-07T13:42:48;2.00;;;1.47;;
568;SDS011;269;48.884;9.192;2023-05-07T13:45:16;1.67;;;1.53;;
568;SDS011;269;48.884;9.192;2023-05-07T13:47:45;2.60;;;1.70;;
568;SDS011;269;48.884;9.192;2023-05-07T13:50:12;2.23;;;2.03;;
568;SDS011;269;48.884;9.192;2023-05-07T13:52:40;2.63;;;1.90;;
568;SDS011;269;48.884;9.192;2023-05-07T13:55:11;1.93;;;1.63;;
568;SDS011;269;48.884;9.192;2023-05-07T13:57:38;2.93;;;1.73;;
568;SDS011;269;48.884;9.192;2023-05-07T14:00:05;1.53;;;1.43;;
568;SDS011;269;48.884;9.192;2023-05-07T14:02:33;1.60;;;1.30;;
568;SDS011;269;48.884;9.192;2023-05-07T14:05:02;1.20;;;1.10;;
568;SDS011;269;48.884;9.192;2023-05-07T14:07:29;1.77;;;1.10;;
568;SDS011;269;48.884;9.192;2023-05-07T14:09:56;1.63;;;1.00;;
568;SDS011;269;48.884;9.192;2023-05-07T14:12:24;1.17;;;1.03;;
568;SDS011;269;48.884;9.192;2023-05-07T14:14:51;0.90;;;0.90;;
568;SDS011;269;48.884;9.192;2023-05-07T14:17:18;1.13;;;1.03;;
568;SDS011;269;48.884;9.192;2023-05-07T14:19:45;0.90;;;0.73;;
568;SDS011;269;48.884;9.192;2023-05-07T14:22:14;1.53;;;0.90;;
568;SDS011;269;48.884;9.192;2023-05-07T14:24:41;2.50;;;1.70;;
568;SDS011;269;48.884;9.192;2023-05-07T14:27:08;2.60;;;1.63;;
568;SDS011;269;48.884;9.192;2023-05-07T14:29:35;1.50;;;1.40;;
568;SDS011;269;48.884;9.192;2023-05-07T14:32:02;1.60;;;1.50;;
568;SDS011;269;48.884;9.192;2023-05-07T14:34:30;1.80;;;1.70;;
568;SDS011;269;48.884;9.192;2023-05-07T14:36:58;1.90;;;1.77;;
568;SDS011;269;48.884;9.192;2023-05-07T14:39:27;2.00;;;1.90;;
568;SDS011;269;48.884;9.192;2023-05-07T14:41:55;2.00;;;1.90;;
568;SDS011;269;48.884;9.192;2023-05-07T14:44:23;2.60;;;2.40;;
568;SDS011;269;48.884;9.192;2023-05-07T14:46:50;2.47;;;2.27;;
568;SDS011;269;48.884;9.192;2023-05-07T14:49:17;2.63;;;2.47;;
568;SDS011;269;48.884;9.192;2023-05-07T14:51:44;2.73;;;2.50;;
568;SDS011;269;48.884;9.192;2023-05-07T14:54:12;2.50;;;2.30;;
568;SDS011;269;48.884;9.192;2023-05-07T14:56:41;3.60;;;2.37;;
568;SDS011;269;48.884;9.192;2023-05-07T14:59:08;4.23;;;3.50;;
568;SDS011;269;48.884;9.192;2023-05-07T15:01:36;3.50;;;3.00;;
568;SDS011;269;48.884;9.192;2023-05-07T15:04:05;3.03;;;2.80;;
568;SDS011;269;48.884;9.192;2023-05-07T15:06:32;2.90;;;2.70;;
568;SDS011;269;48.884;9.192;2023-05-07T15:08:59;3.90;;;3.60;;
568;SDS011;269;48.884;9.192;2023-05-07T15:11:27;6.53;;;6.03;;
568;SDS011;269;48.884;9.192;2023-05-07T15:13:55;7.10;;;6.50;;
568;SDS011;269;48.884;9.192;2023-05-07T15:16:22;5.37;;;4.87;;
568;SDS011;269;48.884;9.192;2023-05-07T15:18:49;3.73;;;3.17;;
568;SDS011;269;48.884;9.192;2023-05-07T15:21:16;3.33;;;2.80;;
568;SDS011;269;48.884;9.192;2023-05-07T15:23:43;3.67;;;3.33;;
568;SDS011;269;48.884;9.192;2023-05-07T15:26:11;3.97;;;3.60;;
568;SDS011;269;48.884;9.192;2023-05-07T15:28:37;3.43;;;3.17;;
568;SDS011;269;48.884;9.192;2023-05-07T15:31:06;4.23;;;3.83;;
568;SDS011;269;48.884;9.192;2023-05-07T15:33:34;4.23;;;3.73;;
568;SDS011;269;48.884;9.192;2023-05-07T15:36:01;5.20;;;4.70;;
568;SDS011;269;48.884;9.192;2023-05-07T15:38:28;3.40;;;3.10;;
568;SDS011;269;48.884;9.192;2023-05-07T15:40:56;5.00;;;4.60;;
568;SDS011;269;48.884;9.192;2023-05-07T15:43:23;4.27;;;3.87;;
568;SDS011;269;48.884;9.192;2023-05-07T15:45:50;3.23;;;3.03;;
568;SDS011;269;48.884;9.192;2023-05-07T15:48:20;4.67;;;3.50;;
568;SDS011;269;48.884;9.192;2023-05-07T15:50:47;3.20;;;2.90;;
568;SDS011;269;48.884;9.192;2023-05-07T15:53:14;3.33;;;3.03;;
568;SDS011;269;48.884;9.192;2023-05-07T15:55:41;4.73;;;3.10;;
568;SDS011;269;48.884;9.192;2023-05-07T15:58:09;3.70;;;3.40;;
568;SDS011;269;48.884;9.192;2023-05-07T16:00:37;3.43;;;2.90;;
568;SDS011;269;48.884;9.192;2023-05-07T16:03:06;4.10;;;2.90;;